Time;durP1;ratioP1;P1;durP2;ratioP2;P2;SDS_P1;SDS_P2;PMS_P1;PMS_P2;Temp;Humidity;BMP_temperature;BMP_pressure;BME280_temperature;BME280_humidity;BME280_pressure;Samples;Min_cycle;Max_cycle;Signal;HPM_P1;HPM_P2
2021/07/05 00:01:19;;;;;;;12.70;4.90;;;;;;;12.31;83.59;95227.25;1796301;79;21001;-58
2021/07/05 00:03:46;;;;;;;5.25;4.58;;;;;;;12.36;83.91;95232.86;1796038;80;21017;-58
2021/07/05 00:06:13;;;;;;;8.80;4.53;;;;;;;12.35;83.95;95229.36;1796324;79;21001;-58
2021/07/05 00:08:40;;;;;;;7.00;4.28;;;;;;;12.39;83.83;95232.30;1796245;80;21479;-58
2021/07/05 00:11:07;;;;;;;5.67;4.70;;;;;;;12.43;83.75;95235.73;1795974;80;20970;-58
2021/07/05 00:13:34;;;;;;;6.92;4.92;;;;;;;12.46;83.43;95234.30;1796188;80;21017;-58
2021/07/05 00:16:01;;;;;;;4.65;4.17;;;;;;;12.47;82.93;95230.73;1796231;80;21028;-58
2021/07/05 00:18:27;;;;;;;7.00;4.08;;;;;;;12.47;82.82;95238.23;1796194;80;20957;-58
2021/07/05 00:20:54;;;;;;;4.75;3.92;;;;;;;12.39;82.51;95238.91;1796027;80;21057;-58
2021/07/05 00:23:21;;;;;;;6.28;3.92;;;;;;;12.31;82.70;95235.19;1796275;80;21451;-58
2021/07/05 00:25:48;;;;;;;5.62;3.83;;;;;;;12.23;83.10;95236.34;1795875;80;21064;-58
2021/07/05 00:28:15;;;;;;;9.90;5.37;;;;;;;12.24;83.14;95241.57;1792581;80;21013;-58
2021/07/05 00:30:42;;;;;;;4.80;3.50;;;;;;;12.30;83.20;95236.58;1787363;80;21045;-58
2021/07/05 00:33:09;;;;;;;7.17;4.45;;;;;;;12.30;82.95;95237.89;1787178;80;21057;-58
2021/07/05 00:35:36;;;;;;;5.17;4.08;;;;;;;12.35;82.97;95233.33;1787308;80;21029;-58
2021/07/05 00:38:03;;;;;;;6.03;4.12;;;;;;;12.40;82.62;95234.05;1787724;80;21041;-58
2021/07/05 00:40:30;;;;;;;5.53;3.87;;;;;;;12.31;82.08;95233.86;1787273;80;21013;-58
2021/07/05 00:42:58;;;;;;;6.42;4.53;;;;;;;12.34;82.27;95232.90;1787370;80;21014;-58
2021/07/05 00:45:28;;;;;;;9.48;4.17;;;;;;;12.29;82.23;95234.83;1787797;80;21002;-58
2021/07/05 00:47:54;;;;;;;8.48;4.22;;;;;;;12.24;82.08;95234.96;1787728;80;21459;-58
2021/07/05 00:50:24;;;;;;;5.10;3.90;;;;;;;12.23;82.50;95229.73;1787628;80;20962;-58
2021/07/05 00:52:55;;;;;;;5.42;3.90;;;;;;;12.25;82.53;95226.59;1787938;80;21560;-58
2021/07/05 00:55:23;;;;;;;6.35;3.47;;;;;;;12.33;82.59;95223.24;1787782;80;20981;-58
2021/07/05 00:57:50;;;;;;;6.10;3.83;;;;;;;12.29;81.99;95226.42;1787708;80;21014;-58
2021/07/05 01:00:21;;;;;;;6.00;4.25;;;;;;;12.08;82.04;95231.92;1787690;80;21005;-58
2021/07/05 01:02:49;;;;;;;6.15;3.90;;;;;;;11.98;82.69;95231.80;1787712;80;21033;-58
2021/07/05 01:05:17;;;;;;;6.53;4.12;;;;;;;11.97;83.08;95228.75;1787437;80;21068;-58
2021/07/05 01:07:45;;;;;;;13.20;4.20;;;;;;;12.01;83.05;95226.87;1787688;80;21467;-58
2021/07/05 01:10:15;;;;;;;5.17;3.92;;;;;;;11.93;82.67;95232.39;1787633;80;21025;-58
2021/07/05 01:12:43;;;;;;;6.45;3.95;;;;;;;11.87;82.84;95228.16;1787577;80;21013;-58
2021/07/05 01:15:13;;;;;;;6.20;3.80;;;;;;;11.80;82.72;95221.74;1787530;80;20989;-58
2021/07/05 01:17:41;;;;;;;5.08;4.10;;;;;;;11.67;83.44;95225.20;1787624;80;21049;-58
2021/07/05 01:20:11;;;;;;;6.97;4.22;;;;;;;11.67;83.66;95218.12;1787525;80;20978;-58
2021/07/05 01:22:39;;;;;;;4.30;3.87;;;;;;;11.66;84.24;95216.84;1787330;80;21632;-58
2021/07/05 01:25:11;;;;;;;7.00;4.67;;;;;;;11.58;84.66;95221.48;1787718;80;21057;-58
2021/07/05 01:27:38;;;;;;;3.95;3.52;;;;;;;11.57;84.58;95232.52;1786970;80;21095;-59
2021/07/05 01:30:07;;;;;;;5.65;3.58;;;;;;;11.49;84.14;95237.16;1734360;81;20994;-58
2021/07/05 01:32:33;;;;;;;6.80;3.83;;;;;;;11.51;84.22;95232.67;1777706;81;21002;-58
2021/07/05 01:35:00;;;;;;;7.05;3.65;;;;;;;11.54;84.51;95227.33;1777178;81;21057;-58
2021/07/05 01:37:26;;;;;;;5.10;4.05;;;;;;;11.53;85.01;95225.57;1777637;81;21013;-58
2021/07/05 01:39:53;;;;;;;4.70;3.72;;;;;;;11.46;85.20;95222.26;1777553;81;21029;-58
2021/07/05 01:42:20;;;;;;;5.65;4.03;;;;;;;11.37;84.52;95229.11;1777631;81;21511;-58
2021/07/05 01:44:47;;;;;;;4.90;3.77;;;;;;;11.36;84.28;95230.45;1777515;80;21053;-58
2021/07/05 01:47:14;;;;;;;4.75;3.65;;;;;;;11.36;84.31;95228.67;1778040;81;20959;-58
2021/07/05 01:49:44;;;;;;;4.33;3.30;;;;;;;11.45;84.64;95227.57;1777564;81;21085;-58
2021/07/05 01:52:09;;;;;;;8.88;3.60;;;;;;;11.54;84.58;95232.61;1777539;81;21046;-58
2021/07/05 01:54:35;;;;;;;8.50;3.40;;;;;;;11.52;84.21;95242.34;1777375;81;21041;-58
2021/07/05 01:57:03;;;;;;;5.20;3.52;;;;;;;11.37;84.34;95246.27;1777709;81;20982;-58
2021/07/05 01:59:29;;;;;;;8.00;3.67;;;;;;;11.39;84.22;95252.81;1777760;80;20990;-58
2021/07/05 02:01:56;;;;;;;5.65;3.60;;;;;;;11.36;84.50;95254.23;1777692;81;20978;-58
2021/07/05 02:04:25;;;;;;;6.37;3.10;;;;;;;11.42;84.97;95249.66;1777719;81;21029;-58
2021/07/05 02:06:52;;;;;;;3.95;3.50;;;;;;;11.39;85.37;95252.39;1777650;80;21010;-58
2021/07/05 02:09:19;;;;;;;9.13;3.30;;;;;;;11.45;85.15;95246.92;1777784;81;21005;-58
2021/07/05 02:11:46;;;;;;;5.53;2.90;;;;;;;11.51;85.01;95242.38;1777437;80;21491;-58
2021/07/05 02:14:12;;;;;;;6.20;3.20;;;;;;;11.50;84.96;95245.48;1778046;80;20978;-58
2021/07/05 02:16:38;;;;;;;6.17;3.22;;;;;;;11.57;85.15;95242.23;1777989;80;20966;-58
2021/07/05 02:19:05;;;;;;;4.30;2.70;;;;;;;11.63;84.67;95246.00;1777643;81;21362;-58
2021/07/05 02:21:32;;;;;;;7.22;3.80;;;;;;;11.63;84.21;95244.22;1778107;81;21002;-58
2021/07/05 02:23:58;;;;;;;4.35;2.87;;;;;;;11.66;84.15;95234.88;1777827;81;20969;-58
2021/07/05 02:26:25;;;;;;;9.20;3.20;;;;;;;11.72;84.02;95233.86;1778128;80;20997;-58
2021/07/05 02:28:51;;;;;;;5.12;2.72;;;;;;;11.61;83.83;95226.67;1777703;80;20995;-58
2021/07/05 02:31:18;;;;;;;4.78;2.85;;;;;;;11.55;83.52;95223.77;1777871;80;21475;-58
2021/07/05 02:33:45;;;;;;;6.95;3.00;;;;;;;11.50;83.76;95224.34;1777895;81;20997;-58
2021/07/05 02:36:11;;;;;;;4.90;3.40;;;;;;;11.48;84.25;95229.66;1778085;80;20962;-58
2021/07/05 02:38:38;;;;;;;8.00;3.37;;;;;;;11.60;84.58;95223.17;1777924;80;20994;-58
2021/07/05 02:41:05;;;;;;;3.70;3.02;;;;;;;11.69;84.32;95222.92;1777895;81;21065;-58
2021/07/05 02:43:33;;;;;;;5.58;3.10;;;;;;;11.80;84.22;95223.06;1777520;80;21049;-58
2021/07/05 02:45:59;;;;;;;3.87;2.70;;;;;;;11.81;83.64;95226.10;1777843;80;21005;-58
2021/07/05 02:48:29;;;;;;;4.72;3.30;;;;;;;11.83;83.51;95223.83;1777849;81;21053;-58
2021/07/05 02:51:01;;;;;;;3.70;2.80;;;;;;;11.85;83.51;95225.11;1777870;81;21052;-58
2021/07/05 02:53:28;;;;;;;3.65;2.58;;;;;;;11.83;83.03;95226.93;1777834;81;21001;-58
2021/07/05 02:55:55;;;;;;;4.45;2.80;;;;;;;11.71;82.71;95220.21;1777727;81;21076;-58
2021/07/05 02:58:22;;;;;;;3.87;3.40;;;;;;;11.64;82.83;95218.66;1778052;80;21037;-58
2021/07/05 03:00:53;;;;;;;3.87;3.30;;;;;;;11.48;83.39;95223.05;1777391;80;21026;-58
2021/07/05 03:03:22;;;;;;;5.05;3.47;;;;;;;11.41;83.25;95216.66;1777997;80;21073;-58
2021/07/05 03:05:49;;;;;;;6.22;3.15;;;;;;;11.33;84.43;95227.91;1777431;81;21479;-58
2021/07/05 03:08:16;;;;;;;3.08;2.77;;;;;;;11.40;84.78;95222.41;1777778;80;21017;-58
2021/07/05 03:10:44;;;;;;;4.37;3.05;;;;;;;11.49;84.72;95223.95;1777523;81;21017;-58
2021/07/05 03:13:17;;;;;;;5.92;3.08;;;;;;;11.59;84.52;95212.63;1777682;81;21483;-58
2021/07/05 03:15:45;;;;;;;3.35;3.05;;;;;;;11.65;84.38;95212.02;1778081;80;20978;-58
2021/07/05 03:18:12;;;;;;;6.03;3.52;;;;;;;11.73;84.02;95215.75;1777683;80;21073;-58
2021/07/05 03:20:43;;;;;;;4.30;3.90;;;;;;;11.82;84.00;95206.70;1777680;81;20989;-58
2021/07/05 03:23:14;;;;;;;7.65;3.25;;;;;;;11.89;83.52;95205.19;1777874;80;21560;-58
2021/07/05 03:25:41;;;;;;;4.72;3.60;;;;;;;11.94;83.38;95212.09;1777777;81;21530;-58
2021/07/05 03:28:12;;;;;;;5.28;3.30;;;;;;;11.97;83.08;95215.96;1777691;80;21016;-59
2021/07/05 03:30:42;;;;;;;3.52;3.08;;;;;;;11.87;83.25;95220.22;1777797;80;21005;-58
2021/07/05 03:33:10;;;;;;;10.43;3.83;;;;;;;11.79;83.32;95218.67;1777752;81;21025;-58
2021/07/05 03:35:37;;;;;;;4.53;3.37;;;;;;;11.72;84.04;95231.22;1777521;80;21025;-58
2021/07/05 03:38:05;;;;;;;3.27;2.98;;;;;;;11.63;84.00;95221.76;1777993;81;21013;-58
2021/07/05 03:40:34;;;;;;;4.92;3.47;;;;;;;11.55;83.97;95218.47;1777853;81;21156;-58
2021/07/05 03:43:01;;;;;;;5.37;3.67;;;;;;;11.51;85.44;95217.28;1777828;81;20986;-58
2021/07/05 03:45:31;;;;;;;8.55;3.55;;;;;;;11.59;85.51;95216.59;1777450;81;21045;-58
2021/07/05 03:48:00;;;;;;;8.43;4.20;;;;;;;11.68;85.56;95218.98;1777736;81;21056;-58
2021/07/05 03:50:28;;;;;;;5.90;4.00;;;;;;;11.78;85.51;95220.45;1777759;81;21001;-58
2021/07/05 03:52:55;;;;;;;7.30;3.58;;;;;;;11.86;85.29;95221.12;1777728;81;21097;-58
2021/07/05 03:55:24;;;;;;;4.20;3.70;;;;;;;11.87;85.29;95224.19;1777694;81;21468;-58
2021/07/05 03:57:52;;;;;;;6.15;4.47;;;;;;;11.91;85.41;95219.66;1777847;81;21535;-58
2021/07/05 04:00:23;;;;;;;7.15;4.30;;;;;;;12.01;85.50;95222.44;1777783;81;21012;-58
2021/07/05 04:02:50;;;;;;;6.20;3.80;;;;;;;12.09;85.55;95211.62;1777680;81;20966;-58
2021/07/05 04:05:18;;;;;;;5.87;5.28;;;;;;;12.17;86.10;95203.03;1777723;81;21045;-58
2021/07/05 04:07:45;;;;;;;5.12;4.35;;;;;;;12.26;85.89;95208.01;1777917;81;21467;-58
2021/07/05 04:10:14;;;;;;;5.22;4.20;;;;;;;12.36;86.27;95216.99;1777553;81;21018;-58
2021/07/05 04:12:42;;;;;;;6.37;3.75;;;;;;;12.50;86.31;95223.58;1777709;81;20990;-58
2021/07/05 04:15:10;;;;;;;5.15;3.80;;;;;;;12.65;86.06;95221.33;1777692;80;21062;-58
2021/07/05 04:17:37;;;;;;;8.40;4.08;;;;;;;12.76;85.82;95228.48;1777742;81;21518;-58
2021/07/05 04:20:10;;;;;;;4.17;3.77;;;;;;;12.89;85.61;95229.80;1777802;80;20989;-58
2021/07/05 04:22:37;;;;;;;4.50;3.95;;;;;;;13.01;85.32;95232.50;1778006;81;21519;-58
2021/07/05 04:25:07;;;;;;;6.53;3.62;;;;;;;13.16;85.29;95237.73;1777744;81;20978;-58
2021/07/05 04:27:34;;;;;;;4.65;3.67;;;;;;;13.27;85.13;95244.87;1777995;81;21455;-58
2021/07/05 04:30:00;;;;;;;4.85;3.55;;;;;;;13.44;85.34;95240.78;1784234;80;21044;-58
2021/07/05 04:32:27;;;;;;;6.42;3.72;;;;;;;13.53;84.61;95238.67;1787347;80;21053;-58
2021/07/05 04:34:54;;;;;;;4.45;4.05;;;;;;;13.62;84.43;95240.11;1787211;80;21621;-58
2021/07/05 04:37:21;;;;;;;5.90;3.62;;;;;;;13.79;84.71;95235.06;1787483;80;21005;-58
2021/07/05 04:39:48;;;;;;;8.13;4.10;;;;;;;13.91;83.95;95234.19;1787704;80;21044;-59
2021/07/05 04:42:14;;;;;;;7.20;3.60;;;;;;;14.01;83.94;95235.58;1787724;80;20970;-58
2021/07/05 04:44:41;;;;;;;6.75;3.92;;;;;;;14.10;83.41;95230.40;1787497;80;21515;-59
2021/07/05 04:47:08;;;;;;;10.75;3.52;;;;;;;14.17;83.15;95228.78;1787727;80;20997;-58
2021/07/05 04:49:35;;;;;;;6.83;3.27;;;;;;;14.31;83.61;95234.86;1787834;80;20973;-58
2021/07/05 04:52:02;;;;;;;4.05;3.45;;;;;;;14.47;82.88;95234.68;1787094;80;21534;-58
2021/07/05 04:54:28;;;;;;;5.53;3.92;;;;;;;14.62;83.26;95235.89;1787718;80;21503;-58
2021/07/05 04:56:55;;;;;;;4.65;3.45;;;;;;;14.77;82.85;95235.74;1787441;80;21045;-59
2021/07/05 04:59:22;;;;;;;4.45;3.52;;;;;;;14.89;82.48;95238.34;1787639;80;20985;-58
2021/07/05 05:01:48;;;;;;;7.72;3.55;;;;;;;15.03;81.97;95244.42;1787889;80;21020;-58
2021/07/05 05:04:15;;;;;;;4.35;3.67;;;;;;;15.07;80.95;95250.03;1787718;80;21435;-59
2021/07/05 05:06:43;;;;;;;6.97;3.60;;;;;;;15.14;80.83;95255.45;1787231;80;20970;-58
2021/07/05 05:09:11;;;;;;;8.28;3.92;;;;;;;15.20;80.42;95262.33;1787708;80;21443;-58
2021/07/05 05:11:38;;;;;;;8.28;3.50;;;;;;;15.35;81.29;95265.67;1787594;80;21535;-58
2021/07/05 05:14:05;;;;;;;4.80;3.30;;;;;;;15.55;80.96;95262.16;1787205;80;21566;-58
2021/07/05 05:16:32;;;;;;;4.78;3.30;;;;;;;15.61;79.47;95265.87;1787458;80;21013;-58
2021/07/05 05:18:58;;;;;;;8.13;3.80;;;;;;;15.71;79.79;95268.55;1787249;80;21017;-58
2021/07/05 05:21:25;;;;;;;4.83;3.67;;;;;;;15.86;79.37;95260.36;1787570;80;20998;-59
2021/07/05 05:23:52;;;;;;;3.72;3.42;;;;;;;15.93;76.56;95259.16;1787539;80;21053;-59
2021/07/05 05:26:18;;;;;;;6.85;4.03;;;;;;;16.00;77.47;95252.64;1787341;80;21056;-59
2021/07/05 05:28:45;;;;;;;4.58;4.15;;;;;;;16.07;77.03;95249.68;1787761;80;21009;-59
2021/07/05 05:31:12;;;;;;;4.45;4.00;;;;;;;16.20;77.40;95249.51;1787368;80;21057;-59
2021/07/05 05:33:38;;;;;;;8.33;4.08;;;;;;;16.29;77.12;95250.42;1787236;80;21511;-58
2021/07/05 05:36:05;;;;;;;5.37;3.58;;;;;;;16.36;77.68;95251.02;1787538;80;21006;-59
2021/07/05 05:38:32;;;;;;;5.72;3.85;;;;;;;16.48;78.04;95257.09;1787585;80;21045;-59
2021/07/05 05:40:58;;;;;;;4.05;3.52;;;;;;;16.62;78.20;95247.11;1787208;80;20986;-59
2021/07/05 05:43:25;;;;;;;4.72;4.08;;;;;;;16.81;77.91;95236.00;1787318;80;20982;-59
2021/07/05 05:45:52;;;;;;;4.90;3.85;;;;;;;16.81;77.91;95236.00;1787723;80;21486;-58
2021/07/05 05:48:18;;;;;;;7.35;4.08;;;;;;;17.03;77.41;95234.93;1787785;80;20994;-59
2021/07/05 05:50:45;;;;;;;5.42;4.28;;;;;;;17.03;77.41;95212.27;1787602;80;21112;-59
2021/07/05 05:53:11;;;;;;;5.97;4.50;;;;;;;17.18;77.65;95221.30;1787464;80;21040;-58
2021/07/05 05:55:43;;;;;;;7.90;4.60;;;;;;;17.28;77.53;95223.42;1787769;80;21049;-59
2021/07/05 05:58:06;;;;;;;10.10;4.80;;;;;;;17.28;77.53;95223.42;1787347;80;21029;-59
2021/07/05 06:00:32;;;;;;;5.80;4.35;;;;;;;17.39;77.50;95224.70;1787918;80;21072;-58
2021/07/05 06:02:59;;;;;;;5.42;4.20;;;;;;;17.50;77.41;95219.19;1787578;80;21518;-58
2021/07/05 06:05:25;;;;;;;5.22;4.10;;;;;;;17.76;77.12;95208.95;1787553;80;21072;-59
2021/07/05 06:07:51;;;;;;;5.85;4.37;;;;;;;17.76;77.12;95208.95;1787853;80;21020;-58
2021/07/05 06:10:22;;;;;;;5.85;4.00;;;;;;;17.91;76.81;95207.31;1787804;80;21005;-59
2021/07/05 06:12:49;;;;;;;7.62;5.17;;;;;;;18.05;76.83;95199.91;1787737;80;21012;-59
2021/07/05 06:15:18;;;;;;;7.67;5.17;;;;;;;18.22;76.28;95205.64;1787607;80;21041;-59
2021/07/05 06:17:46;;;;;;;7.35;5.37;;;;;;;18.37;76.35;95203.49;1787778;80;21009;-59
2021/07/05 06:20:14;;;;;;;5.70;4.55;;;;;;;18.51;75.49;95198.22;1787787;80;20954;-60
2021/07/05 06:22:55;;;;;;;4.35;3.77;;;;;;;18.69;75.74;95192.31;1787313;80;21009;-59
2021/07/05 06:25:19;;;;;;;6.67;3.58;;;;;;;18.87;75.48;95189.56;1785852;80;21455;-59
2021/07/05 06:27:46;;;;;;;5.85;4.08;;;;;;;19.05;75.19;95183.63;1787555;80;21029;-59
2021/07/05 06:30:13;;;;;;;6.33;3.65;;;;;;;19.23;74.26;95187.91;1782416;80;21005;-59
2021/07/05 06:32:42;;;;;;;6.58;4.22;;;;;;;19.36;74.18;95187.56;1777701;81;21030;-59
2021/07/05 06:35:10;;;;;;;5.83;4.55;;;;;;;19.51;72.50;95180.92;1777933;81;20946;-59
2021/07/05 06:37:37;;;;;;;7.08;4.30;;;;;;;19.67;73.27;95184.41;1777782;81;21479;-59
2021/07/05 06:40:08;;;;;;;4.35;3.90;;;;;;;19.81;71.45;95183.09;1778164;81;21021;-59
2021/07/05 06:42:35;;;;;;;4.30;3.90;;;;;;;19.96;70.92;95179.06;1777886;80;20966;-59
2021/07/05 06:45:03;;;;;;;6.00;4.20;;;;;;;20.02;70.69;95172.86;1777405;81;21018;-59
2021/07/05 06:47:29;;;;;;;7.37;3.80;;;;;;;20.16;70.30;95175.14;1777843;80;21001;-59
2021/07/05 06:49:55;;;;;;;6.08;3.52;;;;;;;20.22;68.12;95179.64;1777903;80;21454;-59
2021/07/05 06:52:22;;;;;;;5.60;3.50;;;;;;;20.25;68.17;95182.61;1777687;80;21484;-59
2021/07/05 06:54:48;;;;;;;4.30;3.33;;;;;;;20.29;67.54;95184.14;1778141;80;21009;-59
2021/07/05 06:57:30;;;;;;;3.37;3.08;;;;;;;20.34;66.51;95191.41;1777767;81;20990;-59
2021/07/05 07:00:00;;;;;;;4.50;3.37;;;;;;;20.42;66.65;95185.08;1777772;80;21076;-59
2021/07/05 07:02:27;;;;;;;5.12;3.37;;;;;;;20.54;66.27;95183.44;1777926;81;21542;-59
2021/07/05 07:04:53;;;;;;;4.37;3.60;;;;;;;20.59;64.99;95186.71;1777739;81;20978;-59
2021/07/05 07:07:20;;;;;;;5.15;3.30;;;;;;;20.62;65.34;95173.11;1777670;81;21046;-59
2021/07/05 07:09:47;;;;;;;4.12;3.62;;;;;;;20.68;64.67;95174.03;1777820;80;21016;-59
2021/07/05 07:12:13;;;;;;;5.12;3.50;;;;;;;20.73;64.20;95181.30;1777610;80;21022;-59
2021/07/05 07:14:40;;;;;;;5.22;3.77;;;;;;;20.85;64.87;95181.47;1778214;80;20973;-59
2021/07/05 07:17:21;;;;;;;3.95;3.55;;;;;;;20.91;64.45;95183.25;1777488;81;21022;-59
2021/07/05 07:19:38;;;;;;;3.80;3.30;;;;;;;21.01;63.53;95188.02;1774538;81;20993;-59
2021/07/05 07:22:05;;;;;;;4.37;3.27;;;;;;;21.09;64.28;95184.34;1777425;81;21018;-59
2021/07/05 07:24:32;;;;;;;5.83;4.08;;;;;;;21.16;62.54;95182.97;1777787;80;21085;-59
2021/07/05 07:27:00;;;;;;;5.78;3.27;;;;;;;21.25;63.45;95177.00;1777693;81;20971;-59
2021/07/05 07:29:28;;;;;;;3.40;3.10;;;;;;;21.28;61.76;95183.98;1777815;80;20994;-59
2021/07/05 07:31:54;;;;;;;4.12;3.52;;;;;;;21.32;62.31;95179.65;1777600;81;21558;-59
2021/07/05 07:34:22;;;;;;;3.65;3.35;;;;;;;21.42;61.35;95175.89;1777896;80;20982;-59
2021/07/05 07:36:49;;;;;;;5.03;3.55;;;;;;;21.48;60.63;95184.00;1777285;81;21468;-59
2021/07/05 07:39:26;;;;;;;6.90;3.90;;;;;;;21.61;61.83;95179.02;1777716;81;20993;-59
2021/07/05 07:41:45;;;;;;;4.67;3.70;;;;;;;21.70;61.26;95177.54;1774483;81;21093;-59
2021/07/05 07:44:11;;;;;;;6.47;3.77;;;;;;;21.80;62.03;95184.48;1777483;80;21009;-59
2021/07/05 07:46:38;;;;;;;5.35;4.05;;;;;;;21.95;61.15;95187.44;1777767;80;21014;-59
2021/07/05 07:49:04;;;;;;;7.17;3.98;;;;;;;21.95;59.88;95182.06;1777775;81;20974;-59
2021/07/05 07:51:31;;;;;;;4.30;3.90;;;;;;;21.89;57.54;95185.16;1777586;80;21018;-59
2021/07/05 07:53:59;;;;;;;5.50;3.87;;;;;;;22.00;59.89;95183.94;1777721;81;21515;-59
2021/07/05 07:56:26;;;;;;;3.95;3.60;;;;;;;22.16;61.14;95191.77;1777705;81;21006;-59
2021/07/05 07:58:53;;;;;;;4.42;3.50;;;;;;;22.03;58.99;95191.78;1777715;81;21006;-59
2021/07/05 08:01:20;;;;;;;4.03;3.40;;;;;;;22.00;60.88;95185.28;1777713;81;21495;-59
2021/07/05 08:03:46;;;;;;;4.60;3.72;;;;;;;22.11;58.22;95185.87;1777736;80;21029;-59
2021/07/05 08:06:13;;;;;;;6.28;3.80;;;;;;;22.24;59.76;95181.36;1777768;80;20998;-59
2021/07/05 08:08:40;;;;;;;4.40;3.95;;;;;;;22.34;62.16;95185.60;1777743;80;21001;-59
2021/07/05 08:11:06;;;;;;;6.03;4.25;;;;;;;22.29;60.46;95186.41;1777776;80;21006;-59
2021/07/05 08:13:33;;;;;;;5.53;4.10;;;;;;;22.28;60.22;95194.61;1777804;81;21085;-59
2021/07/05 08:15:59;;;;;;;5.25;4.10;;;;;;;22.17;60.08;95196.66;1777348;80;21049;-59
2021/07/05 08:18:26;;;;;;;3.58;3.27;;;;;;;22.04;60.34;95193.98;1777482;81;21002;-59
2021/07/05 08:20:53;;;;;;;4.92;3.92;;;;;;;21.88;59.63;95198.72;1777682;81;21061;-59
2021/07/05 08:23:19;;;;;;;3.85;3.47;;;;;;;21.73;60.76;95194.78;1777597;81;21101;-59
2021/07/05 08:25:45;;;;;;;3.70;3.30;;;;;;;21.71;61.49;95191.82;1777747;80;21499;-59
2021/07/05 08:28:13;;;;;;;3.80;3.40;;;;;;;21.71;61.51;95191.82;1777963;81;21129;-59
2021/07/05 08:30:40;;;;;;;4.90;3.52;;;;;;;21.60;61.00;95189.88;1782286;80;21040;-59
2021/07/05 08:33:06;;;;;;;3.95;3.65;;;;;;;21.73;61.40;95190.75;1787760;80;21518;-59
2021/07/05 08:35:34;;;;;;;4.35;3.22;;;;;;;22.04;62.12;95194.83;1787396;80;21010;-59
2021/07/05 08:38:00;;;;;;;4.25;3.62;;;;;;;22.13;62.37;95191.14;1787657;80;20990;-59
2021/07/05 08:40:27;;;;;;;3.62;3.22;;;;;;;22.17;61.79;95193.97;1787605;80;21513;-59
2021/07/05 08:42:56;;;;;;;3.77;3.47;;;;;;;22.18;61.05;95193.02;1787714;80;20986;-59
2021/07/05 08:45:23;;;;;;;4.85;3.20;;;;;;;22.34;60.84;95190.13;1787629;80;21057;-59
2021/07/05 08:47:53;;;;;;;3.72;3.42;;;;;;;22.44;60.91;95189.84;1787642;80;20973;-59
2021/07/05 08:50:22;;;;;;;3.95;3.65;;;;;;;22.43;60.75;95186.30;1787619;80;21018;-59
2021/07/05 08:52:49;;;;;;;3.80;3.35;;;;;;;22.42;61.32;95191.28;1787626;80;21009;-59
2021/07/05 08:55:21;;;;;;;4.20;3.80;;;;;;;22.23;57.69;95190.41;1787327;80;21005;-59
2021/07/05 08:57:48;;;;;;;3.70;3.40;;;;;;;22.36;57.97;95189.05;1787596;80;21005;-59
2021/07/05 09:00:25;;;;;;;8.18;3.72;;;;;;;22.58;60.12;95187.48;1787368;80;21062;-59
2021/07/05 09:02:56;;;;;;;3.92;3.55;;;;;;;22.94;60.55;95189.33;1787742;80;21510;-59
2021/07/05 09:05:22;;;;;;;3.55;3.25;;;;;;;23.33;59.70;95184.18;1787255;80;20978;-59
2021/07/05 09:08:10;;;;;;;6.12;3.95;;;;;;;23.62;55.33;95183.78;1787535;80;21478;-59
2021/07/05 09:10:56;;;;;;;3.60;3.30;;;;;;;23.92;58.78;95183.77;1787202;80;21081;-59
2021/07/05 09:13:25;;;;;;;4.08;3.67;;;;;;;24.08;54.13;95178.88;1787715;80;21017;-59
2021/07/05 09:16:01;;;;;;;3.40;3.12;;;;;;;23.99;54.53;95186.36;1787618;80;21001;-59
2021/07/05 09:18:47;;;;;;;3.58;3.27;;;;;;;23.96;54.57;95185.23;1787440;80;21010;-59
2021/07/05 09:21:23;;;;;;;3.52;3.22;;;;;;;24.06;55.88;95187.57;1787767;80;21009;-59
2021/07/05 09:24:06;;;;;;;8.90;4.12;;;;;;;24.24;54.15;95179.90;1787575;80;21518;-59
2021/07/05 09:26:42;;;;;;;5.00;3.30;;;;;;;24.51;54.47;95182.23;1787509;80;21053;-59
2021/07/05 09:29:22;;;;;;;6.47;3.90;;;;;;;24.46;53.74;95188.49;1787620;80;21503;-59
2021/07/05 09:32:02;;;;;;;4.28;3.17;;;;;;;24.32;53.58;95185.53;1793275;80;21107;-59
2021/07/05 09:34:41;;;;;;;3.52;3.22;;;;;;;24.27;52.74;95180.14;1796145;80;20989;-59
2021/07/05 09:37:24;;;;;;;3.60;3.08;;;;;;;24.30;52.13;95182.09;1796141;79;21020;-59
2021/07/05 09:40:08;;;;;;;3.90;3.35;;;;;;;24.55;54.24;95178.83;1796275;80;20997;-59
2021/07/05 09:42:45;;;;;;;3.70;3.33;;;;;;;24.80;53.05;95177.20;1796261;80;21013;-59
2021/07/05 09:45:31;;;;;;;4.53;3.30;;;;;;;25.15;53.63;95178.84;1796469;80;21008;-59
2021/07/05 09:48:18;;;;;;;5.83;3.22;;;;;;;25.15;50.35;95182.00;1796117;79;21009;-59
2021/07/05 09:50:48;;;;;;;4.55;3.60;;;;;;;24.96;51.87;95186.23;1795332;80;21021;-59
2021/07/05 09:53:34;;;;;;;4.50;3.30;;;;;;;24.83;49.65;95185.53;1796024;79;21008;-59
2021/07/05 09:56:26;;;;;;;6.25;3.35;;;;;;;24.67;50.97;95184.58;1796348;79;21056;-59
2021/07/05 09:59:19;;;;;;;4.03;3.47;;;;;;;24.64;52.05;95175.86;1795807;80;21005;-59
2021/07/05 10:01:50;;;;;;;3.87;3.23;;;;;;;24.84;51.96;95173.73;1796389;80;21490;-59
2021/07/05 10:04:27;;;;;;;5.62;3.40;;;;;;;25.10;48.60;95172.08;1796295;80;21588;-59
2021/07/05 10:06:56;;;;;;;5.25;3.27;;;;;;;25.26;52.26;95181.52;1796136;79;21053;-60
2021/07/05 10:09:41;;;;;;;3.50;3.17;;;;;;;25.54;49.99;95172.94;1796387;79;20989;-59
2021/07/05 10:12:30;;;;;;;3.25;2.95;;;;;;;25.73;48.32;95167.70;1797597;79;21561;-59
2021/07/05 10:15:12;;;;;;;3.55;3.30;;;;;;;25.90;48.57;95175.25;1796404;80;21521;-59
2021/07/05 10:17:42;;;;;;;3.20;2.90;;;;;;;25.89;44.84;95170.81;1796066;80;21064;-59
2021/07/05 10:20:20;;;;;;;3.10;2.87;;;;;;;25.77;44.52;95169.63;1796258;80;20981;-59
2021/07/05 10:22:50;;;;;;;4.35;3.40;;;;;;;25.44;44.99;95177.77;1796011;80;21013;-59
2021/07/05 10:25:18;;;;;;;3.10;2.55;;;;;;;25.48;47.66;95167.58;1796804;79;21462;-59
2021/07/05 10:27:45;;;;;;;5.75;3.05;;;;;;;25.49;46.95;95166.58;1765028;80;20989;-60
2021/07/05 10:30:15;;;;;;;3.42;3.05;;;;;;;25.67;48.04;95158.75;1796209;79;21009;-59
2021/07/05 10:32:44;;;;;;;5.08;3.27;;;;;;;25.82;46.79;95153.87;1796295;80;21024;-59
2021/07/05 10:35:14;;;;;;;3.58;2.92;;;;;;;25.93;46.52;95162.43;1796239;80;21547;-59
2021/07/05 10:38:11;;;;;;;3.55;3.20;;;;;;;25.99;46.14;95163.27;1796080;80;21028;-59
2021/07/05 10:40:46;;;;;;;3.10;2.83;;;;;;;26.03;44.29;95160.17;1796088;80;21483;-59
2021/07/05 10:43:18;;;;;;;4.22;3.33;;;;;;;25.95;44.43;95165.36;1796266;79;21005;-59
2021/07/05 10:45:48;;;;;;;5.35;3.00;;;;;;;25.96;45.10;95154.93;1796379;80;21013;-59
2021/07/05 10:48:20;;;;;;;3.67;2.67;;;;;;;26.09;46.45;95156.07;1765147;80;20945;-59
2021/07/05 10:50:51;;;;;;;3.80;2.60;;;;;;;26.22;45.54;95155.85;1796037;80;21544;-59
2021/07/05 10:53:38;;;;;;;3.67;2.83;;;;;;;26.26;43.49;95154.10;1796168;79;20997;-60
2021/07/05 10:56:32;;;;;;;3.77;3.25;;;;;;;26.22;44.63;95155.35;1796472;79;20985;-59
2021/07/05 10:59:13;;;;;;;3.50;3.20;;;;;;;26.29;46.10;95156.53;1796497;80;20929;-59
2021/07/05 11:01:44;;;;;;;3.12;2.83;;;;;;;26.45;45.20;95161.94;1779040;80;21025;-59
2021/07/05 11:04:30;;;;;;;3.40;3.10;;;;;;;26.53;43.68;95165.72;1796286;80;20981;-59
2021/07/05 11:07:00;;;;;;;4.90;3.60;;;;;;;26.50;43.56;95166.44;1796548;80;20973;-59
2021/07/05 11:09:27;;;;;;;4.42;3.30;;;;;;;26.61;43.53;95166.86;1796557;79;21021;-59
2021/07/05 11:11:58;;;;;;;3.50;3.20;;;;;;;26.80;44.81;95168.80;1796361;79;21056;-59
2021/07/05 11:14:39;;;;;;;4.53;3.17;;;;;;;26.85;44.20;95166.02;1796460;79;21080;-59
2021/07/05 11:17:22;;;;;;;4.37;3.15;;;;;;;27.01;44.38;95168.19;1796236;79;21048;-59
2021/07/05 11:19:58;;;;;;;3.98;3.47;;;;;;;27.22;45.84;95167.29;1796466;80;21463;-59
2021/07/05 11:22:36;;;;;;;3.50;3.02;;;;;;;27.35;43.94;95171.92;1795774;80;21025;-59
2021/07/05 11:25:25;;;;;;;3.87;3.08;;;;;;;27.41;41.75;95165.92;1796268;80;21021;-59
2021/07/05 11:27:59;;;;;;;3.50;3.20;;;;;;;27.46;42.54;95179.91;1796261;79;21013;-59
2021/07/05 11:30:41;;;;;;;3.45;3.15;;;;;;;27.56;42.98;95171.27;1795167;79;20949;-60
2021/07/05 11:33:19;;;;;;;3.47;3.17;;;;;;;27.71;42.69;95174.41;1778131;80;21093;-59
2021/07/05 11:35:58;;;;;;;4.10;3.70;;;;;;;27.78;44.55;95162.00;1777924;81;21133;-59
2021/07/05 11:38:42;;;;;;;6.28;3.37;;;;;;;27.92;42.99;95168.88;1777648;81;21495;-59
2021/07/05 11:41:21;;;;;;;3.37;2.95;;;;;;;27.97;40.62;95172.02;1777922;81;20988;-60
2021/07/05 11:44:15;;;;;;;3.72;3.00;;;;;;;28.01;40.21;95177.98;1777537;81;21018;-59
2021/07/05 11:46:40;;;;;;;5.67;3.30;;;;;;;28.04;41.60;95179.89;1772452;81;21054;-59